KFST/FST METAR and TAF weather

Enter ICAO airport designator
Station Type Date Time Source
KFST METAR 2020/08/07 12:53 UTC NOAA

KFST 071253Z AUTO 16012KT 10SM CLR 23/17 A3003 RMK AO2 SLP117 T02330167


Station Type Date Time Source
KFST Decoded METAR 2020/08/07 12:53 UTC NOAA

FORT STOCKTON PECOS CO AIRPORT , TX, United States (KFST) 30-55N 102-55W 918M
Aug 07, 2020 - 08:53 AM EDT / 2020.08.07 1253 UTC
Wind: from the SSE (160 degrees) at 14 MPH (12 KT):0
Visibility: 10 mile(s):0
Sky conditions: clear
Temperature: 73.9 F (23.3 C)
Dew Point: 62.1 F (16.7 C)
Relative Humidity: 66%
Pressure (altimeter): 30.03 in. Hg (1016 hPa)
ob: KFST 071253Z AUTO 16012KT 10SM CLR 23/17 A3003 RMK AO2 SLP117 T02330167
cycle: 13

Station Type Date Time Source
KFST TAF 2020/08/07 12:24 UTC NOAA

TAF KFST 071123Z 0712/0812 16014G22KT P6SM FEW250
FM080900 16011KT P6SM FEW250

Example: see airport list